Terminal Aerodrome Forecast
Issued by NWS

Home | Current Version | Previous Version | Text Only | Print | Product List | Glossary On
Versions: 1 2 3 4 5 6 7 8 9 10 11 12 13 14 15 16
000
FTUS45 KSLC 170523
TAFSGU
TAF
KSGU 170523Z 1706/1806 05015G25KT P6SM SCT250
     FM171000 VRB04KT P6SM SCT250
     FM172100 23012G20KT P6SM SKC
     FM180100 23010KT P6SM SKC
     FM180300 VRB05KT P6SM SKC
      AMD LTD TO CLD VIS AND WIND=

USA.gov is the U.S. government's official web portal to all federal, state and local government web resources and services.